Time,TemperatureF,DewpointF,PressureIn,WindDirection,WindDirectionDegrees,WindSpeedMPH,WindSpeedGustMPH,Humidity,HourlyPrecipIn,Conditions,Clouds,dailyrainin,SoftwareType,DateUTC
2013-12-15 00:00:00,24.1,19.7,30.20,West,278,2.0,9.0,83,0.00,,,0.00,VWS V14.01,2013-12-15 06:00:00,
2013-12-15 00:03:00,24.0,19.6,30.20,West,275,5.0,7.0,83,0.00,,,0.00,VWS V14.01,2013-12-15 06:03:00,
2013-12-15 00:08:00,23.8,19.1,30.20,West,277,2.0,11.0,82,0.00,,,0.00,VWS V14.01,2013-12-15 06:08:00,
2013-12-15 00:13:00,23.5,18.8,30.20,West,279,1.0,11.0,82,0.00,,,0.00,VWS V14.01,2013-12-15 06:13:00,
2013-12-15 00:18:00,23.2,18.5,30.20,West,279,2.0,11.0,82,0.00,,,0.00,VWS V14.01,2013-12-15 06:18:00,
2013-12-15 00:23:00,22.9,18.2,30.20,West,279,1.0,11.0,82,0.00,,,0.00,VWS V14.01,2013-12-15 06:23:00,
2013-12-15 00:29:00,22.8,18.4,30.20,West,279,4.0,11.0,83,0.00,,,0.00,VWS V14.01,2013-12-15 06:29:00,
2013-12-15 00:30:00,22.7,18.3,30.20,West,279,0.0,11.0,83,0.00,,,0.00,VWS V14.01,2013-12-15 06:30:00,
2013-12-15 00:34:00,22.6,18.2,30.19,West,279,0.0,0.0,83,0.00,,,0.00,VWS V14.01,2013-12-15 06:34:00,
2013-12-15 00:39:00,22.5,18.1,30.19,West,279,0.0,2.0,83,0.00,,,0.00,VWS V14.01,2013-12-15 06:39:00,
2013-12-15 00:44:00,22.5,18.1,30.19,West,279,0.0,4.0,83,0.00,,,0.00,VWS V14.01,2013-12-15 06:44:00,
2013-12-15 00:49:00,22.3,17.9,30.19,West,279,0.0,4.0,83,0.00,,,0.00,VWS V14.01,2013-12-15 06:49:00,
2013-12-15 00:54:00,22.2,17.8,30.19,West,279,0.0,4.0,83,0.00,,,0.00,VWS V14.01,2013-12-15 06:54:00,
2013-12-15 00:59:00,22.0,17.9,30.19,West,279,0.0,4.0,84,0.00,,,0.00,VWS V14.01,2013-12-15 06:59:00,
2013-12-15 01:00:00,22.0,17.9,30.19,West,279,1.0,4.0,84,0.00,,,0.00,VWS V14.01,2013-12-15 07:00:00,
2013-12-15 01:04:00,21.8,17.7,30.19,West,279,0.0,2.0,84,0.00,,,0.00,VWS V14.01,2013-12-15 07:04:00,
2013-12-15 01:09:00,21.7,17.6,30.19,West,279,0.0,4.0,84,0.00,,,0.00,VWS V14.01,2013-12-15 07:09:00,
2013-12-15 01:14:00,21.6,17.5,30.19,West,279,0.0,4.0,84,0.00,,,0.00,VWS V14.01,2013-12-15 07:14:00,
2013-12-15 01:19:00,21.5,17.4,30.19,West,279,5.0,5.0,84,0.00,,,0.00,VWS V14.01,2013-12-15 07:19:00,
2013-12-15 01:24:00,21.3,17.2,30.19,West,279,1.0,5.0,84,0.00,,,0.00,VWS V14.01,2013-12-15 07:24:00,
2013-12-15 01:29:00,21.2,16.9,30.19,West,279,1.0,5.0,83,0.00,,,0.00,VWS V14.01,2013-12-15 07:29:00,
2013-12-15 01:30:00,21.2,16.9,30.19,West,279,0.0,5.0,83,0.00,,,0.00,VWS V14.01,2013-12-15 07:30:00,
2013-12-15 01:34:00,21.1,16.8,30.20,West,279,2.0,4.0,83,0.00,,,0.00,VWS V14.01,2013-12-15 07:34:00,
2013-12-15 01:39:00,20.9,16.8,30.19,West,279,1.0,4.0,84,0.00,,,0.00,VWS V14.01,2013-12-15 07:39:00,
2013-12-15 01:44:00,20.9,16.8,30.19,West,279,5.0,5.0,84,0.00,,,0.00,VWS V14.01,2013-12-15 07:44:00,
2013-12-15 01:49:00,20.9,16.8,30.19,West,279,2.0,6.0,84,0.00,,,0.00,VWS V14.01,2013-12-15 07:49:00,
2013-12-15 01:54:00,20.9,16.8,30.19,West,278,1.0,6.0,84,0.00,,,0.00,VWS V14.01,2013-12-15 07:54:00,
2013-12-15 01:59:00,21.0,16.9,30.19,West,278,1.0,6.0,84,0.00,,,0.00,VWS V14.01,2013-12-15 07:59:00,
2013-12-15 02:00:00,21.0,16.9,30.19,West,278,0.0,6.0,84,0.00,,,0.00,VWS V14.01,2013-12-15 08:00:00,
2013-12-15 02:04:00,21.0,16.9,30.19,West,278,4.0,5.0,84,0.00,,,0.00,VWS V14.01,2013-12-15 08:04:00,
2013-12-15 02:09:00,21.0,16.9,30.19,WSW,246,2.0,6.0,84,0.00,,,0.00,VWS V14.01,2013-12-15 08:09:00,
2013-12-15 02:14:00,21.0,16.9,30.19,WSW,246,3.0,6.0,84,0.00,,,0.00,VWS V14.01,2013-12-15 08:14:00,
2013-12-15 02:19:00,20.9,16.8,30.19,WSW,246,2.0,6.0,84,0.00,,,0.00,VWS V14.01,2013-12-15 08:19:00,
2013-12-15 02:24:00,20.8,16.7,30.19,WSW,246,0.0,6.0,84,0.00,,,0.00,VWS V14.01,2013-12-15 08:24:00,
2013-12-15 02:29:00,20.7,16.6,30.19,WSW,246,3.0,6.0,84,0.00,,,0.00,VWS V14.01,2013-12-15 08:29:00,
2013-12-15 02:30:00,20.7,16.6,30.19,WSW,246,2.0,6.0,84,0.00,,,0.00,VWS V14.01,2013-12-15 08:30:00,
2013-12-15 02:34:00,20.7,16.6,30.19,WSW,246,3.0,4.0,84,0.00,,,0.00,VWS V14.01,2013-12-15 08:34:00,
2013-12-15 02:39:00,20.5,16.4,30.19,WSW,246,0.0,4.0,84,0.00,,,0.00,VWS V14.01,2013-12-15 08:39:00,
2013-12-15 02:44:00,20.4,16.4,30.19,WSW,246,0.0,4.0,84,0.00,,,0.00,VWS V14.01,2013-12-15 08:44:00,
2013-12-15 02:49:00,20.3,16.5,30.20,WSW,247,2.0,5.0,85,0.00,,,0.00,VWS V14.01,2013-12-15 08:49:00,
2013-12-15 02:54:00,20.3,16.2,30.20,WSW,246,0.0,5.0,84,0.00,,,0.00,VWS V14.01,2013-12-15 08:54:00,
2013-12-15 02:59:00,20.3,16.2,30.20,WSW,245,0.0,6.0,84,0.00,,,0.00,VWS V14.01,2013-12-15 08:59:00,
2013-12-15 03:00:00,20.3,16.2,30.20,WSW,245,0.0,6.0,84,0.00,,,0.00,VWS V14.01,2013-12-15 09:00:00,
2013-12-15 03:04:00,20.2,16.1,30.20,WSW,245,2.0,3.0,84,0.00,,,0.00,VWS V14.01,2013-12-15 09:04:00,
2013-12-15 03:09:00,20.2,16.1,30.20,WSW,245,2.0,4.0,84,0.00,,,0.00,VWS V14.01,2013-12-15 09:09:00,
2013-12-15 03:14:00,20.1,16.0,30.21,WSW,245,3.0,4.0,84,0.00,,,0.00,VWS V14.01,2013-12-15 09:14:00,
2013-12-15 03:19:00,20.1,16.0,30.21,WSW,253,4.0,6.0,84,0.00,,,0.00,VWS V14.01,2013-12-15 09:19:00,
2013-12-15 03:24:00,20.2,16.1,30.21,West,263,2.0,10.0,84,0.00,,,0.00,VWS V14.01,2013-12-15 09:24:00,
2013-12-15 03:29:00,20.1,16.0,30.20,West,263,3.0,10.0,84,0.00,,,0.00,VWS V14.01,2013-12-15 09:29:00,
2013-12-15 03:30:00,20.1,16.0,30.21,West,263,3.0,10.0,84,0.00,,,0.00,VWS V14.01,2013-12-15 09:30:00,
2013-12-15 03:34:00,20.0,15.9,30.20,West,263,0.0,4.0,84,0.00,,,0.00,VWS V14.01,2013-12-15 09:34:00,
2013-12-15 03:39:00,19.9,15.9,30.20,West,263,3.0,4.0,84,0.00,,,0.00,VWS V14.01,2013-12-15 09:39:00,
2013-12-15 03:44:00,19.8,15.8,30.20,West,263,0.0,4.0,84,0.00,,,0.00,VWS V14.01,2013-12-15 09:44:00,
2013-12-15 03:49:00,19.7,15.7,30.20,West,263,0.0,4.0,84,0.00,,,0.00,VWS V14.01,2013-12-15 09:49:00,
2013-12-15 03:54:00,19.7,15.7,30.20,West,263,0.0,4.0,84,0.00,,,0.00,VWS V14.01,2013-12-15 09:54:00,
2013-12-15 03:59:00,19.6,15.6,30.20,West,263,1.0,4.0,84,0.00,,,0.00,VWS V14.01,2013-12-15 09:59:00,
2013-12-15 04:00:00,19.6,15.6,30.20,West,263,3.0,4.0,84,0.00,,,0.00,VWS V14.01,2013-12-15 10:00:00,
2013-12-15 04:04:00,19.7,15.7,30.20,West,261,3.0,5.0,84,0.00,,,0.00,VWS V14.01,2013-12-15 10:04:00,
2013-12-15 04:09:00,19.7,15.9,30.20,West,261,1.0,6.0,85,0.00,,,0.00,VWS V14.01,2013-12-15 10:09:00,
2013-12-15 04:14:00,19.7,15.9,30.19,West,261,1.0,6.0,85,0.00,,,0.00,VWS V14.01,2013-12-15 10:14:00,
2013-12-15 04:19:00,19.7,15.9,30.19,West,261,4.0,6.0,85,0.00,,,0.00,VWS V14.01,2013-12-15 10:19:00,
2013-12-15 04:24:00,19.7,15.7,30.19,West,261,1.0,6.0,84,0.00,,,0.00,VWS V14.01,2013-12-15 10:24:00,
2013-12-15 04:29:00,19.7,15.7,30.19,West,261,2.0,6.0,84,0.00,,,0.00,VWS V14.01,2013-12-15 10:29:00,
2013-12-15 04:30:00,19.7,15.7,30.19,West,261,1.0,6.0,84,0.00,,,0.00,VWS V14.01,2013-12-15 10:30:00,
2013-12-15 04:34:00,19.7,15.7,30.19,West,261,2.0,3.0,84,0.00,,,0.00,VWS V14.01,2013-12-15 10:34:00,
2013-12-15 04:39:00,19.7,15.7,30.19,West,261,2.0,3.0,84,0.00,,,0.00,VWS V14.01,2013-12-15 10:39:00,
2013-12-15 04:44:00,19.7,15.7,30.19,West,261,2.0,4.0,84,0.00,,,0.00,VWS V14.01,2013-12-15 10:44:00,
2013-12-15 04:49:00,19.7,15.7,30.20,West,261,1.0,4.0,84,0.00,,,0.00,VWS V14.01,2013-12-15 10:49:00,
2013-12-15 04:54:00,19.7,15.7,30.20,West,261,5.0,5.0,84,0.00,,,0.00,VWS V14.01,2013-12-15 10:54:00,
2013-12-15 04:59:00,19.5,15.5,30.20,West,261,1.0,5.0,84,0.00,,,0.00,VWS V14.01,2013-12-15 10:59:00,
2013-12-15 05:00:00,19.5,15.5,30.20,West,261,0.0,5.0,84,0.00,,,0.00,VWS V14.01,2013-12-15 11:00:00,
2013-12-15 05:04:00,19.4,15.4,30.20,West,261,2.0,3.0,84,0.00,,,0.00,VWS V14.01,2013-12-15 11:04:00,
2013-12-15 05:09:00,19.3,15.3,30.20,West,261,2.0,3.0,84,0.00,,,0.00,VWS V14.01,2013-12-15 11:09:00,
2013-12-15 05:14:00,19.1,15.1,30.20,West,261,0.0,3.0,84,0.00,,,0.00,VWS V14.01,2013-12-15 11:14:00,
2013-12-15 05:19:00,19.0,15.0,30.20,West,261,2.0,3.0,84,0.00,,,0.00,VWS V14.01,2013-12-15 11:19:00,
2013-12-15 05:24:00,18.8,14.8,30.20,West,261,0.0,3.0,84,0.00,,,0.00,VWS V14.01,2013-12-15 11:24:00,
2013-12-15 05:29:00,18.6,14.6,30.20,West,261,0.0,3.0,84,0.00,,,0.00,VWS V14.01,2013-12-15 11:29:00,
2013-12-15 05:30:00,18.6,14.6,30.20,West,261,0.0,3.0,84,0.00,,,0.00,VWS V14.01,2013-12-15 11:30:00,
2013-12-15 05:34:00,18.4,14.4,30.20,West,261,0.0,2.0,84,0.00,,,0.00,VWS V14.01,2013-12-15 11:34:00,
2013-12-15 05:39:00,18.2,14.2,30.20,West,261,0.0,2.0,84,0.00,,,0.00,VWS V14.01,2013-12-15 11:39:00,
2013-12-15 05:44:00,18.1,14.4,30.19,West,261,0.0,2.0,85,0.00,,,0.00,VWS V14.01,2013-12-15 11:44:00,
2013-12-15 05:49:00,18.1,14.4,30.20,West,261,0.0,2.0,85,0.00,,,0.00,VWS V14.01,2013-12-15 11:49:00,
2013-12-15 05:54:00,17.9,14.2,30.19,West,261,0.0,2.0,85,0.00,,,0.00,VWS V14.01,2013-12-15 11:54:00,
2013-12-15 05:59:00,17.8,14.1,30.19,West,261,0.0,2.0,85,0.00,,,0.00,VWS V14.01,2013-12-15 11:59:00,
2013-12-15 06:00:00,17.8,14.1,30.19,West,261,0.0,2.0,85,0.00,,,0.00,VWS V14.01,2013-12-15 12:00:00,
2013-12-15 06:04:00,17.6,13.6,30.20,West,261,0.0,0.0,84,0.00,,,0.00,VWS V14.01,2013-12-15 12:04:00,
2013-12-15 06:09:00,17.4,13.4,30.20,West,261,0.0,0.0,84,0.00,,,0.00,VWS V14.01,2013-12-15 12:09:00,
2013-12-15 06:14:00,17.2,13.2,30.20,West,261,0.0,0.0,84,0.00,,,0.00,VWS V14.01,2013-12-15 12:14:00,
2013-12-15 06:19:00,17.1,13.4,30.21,West,261,0.0,0.0,85,0.00,,,0.00,VWS V14.01,2013-12-15 12:19:00,
2013-12-15 06:24:00,16.9,13.2,30.21,West,261,0.0,0.0,85,0.00,,,0.00,VWS V14.01,2013-12-15 12:24:00,
2013-12-15 06:29:00,16.8,13.1,30.21,West,261,0.0,0.0,85,0.00,,,0.00,VWS V14.01,2013-12-15 12:29:00,
2013-12-15 06:30:00,16.8,13.1,30.21,West,261,0.0,0.0,85,0.00,,,0.00,VWS V14.01,2013-12-15 12:30:00,
2013-12-15 06:34:00,16.6,12.9,30.21,West,261,0.0,0.0,85,0.00,,,0.00,VWS V14.01,2013-12-15 12:34:00,
2013-12-15 06:39:00,16.6,13.1,30.21,West,261,0.0,0.0,86,0.00,,,0.00,VWS V14.01,2013-12-15 12:39:00,
2013-12-15 06:44:00,16.6,13.1,30.21,West,261,0.0,0.0,86,0.00,,,0.00,VWS V14.01,2013-12-15 12:44:00,
2013-12-15 06:49:00,16.6,13.1,30.21,West,261,1.0,1.0,86,0.00,,,0.00,VWS V14.01,2013-12-15 12:49:00,
2013-12-15 06:54:00,17.1,13.9,30.21,West,261,2.0,3.0,87,0.00,,,0.00,VWS V14.01,2013-12-15 12:54:00,
2013-12-15 06:59:00,17.7,14.8,30.21,West,261,1.0,3.0,88,0.00,,,0.00,VWS V14.01,2013-12-15 12:59:00,
2013-12-15 07:00:00,17.8,14.6,30.21,West,261,0.0,3.0,87,0.00,,,0.00,VWS V14.01,2013-12-15 13:00:00,
2013-12-15 07:04:00,18.1,14.9,30.21,West,261,0.0,1.0,87,0.00,,,0.00,VWS V14.01,2013-12-15 13:04:00,
2013-12-15 07:09:00,18.2,15.0,30.21,West,261,0.0,1.0,87,0.00,,,0.00,VWS V14.01,2013-12-15 13:09:00,
2013-12-15 07:14:00,18.6,17.4,30.21,West,261,1.0,3.0,95,0.00,,,0.00,VWS V14.01,2013-12-15 13:14:00,
2013-12-15 07:19:00,18.9,15.7,30.21,West,261,2.0,3.0,87,0.00,,,0.00,VWS V14.01,2013-12-15 13:19:00,
2013-12-15 07:24:00,19.2,15.7,30.21,West,261,1.0,4.0,86,0.00,,,0.00,VWS V14.01,2013-12-15 13:24:00,
2013-12-15 07:29:00,19.4,15.9,30.21,West,261,0.0,4.0,86,0.00,,,0.00,VWS V14.01,2013-12-15 13:29:00,
2013-12-15 07:30:00,19.5,16.0,30.21,West,261,0.0,4.0,86,0.00,,,0.00,VWS V14.01,2013-12-15 13:30:00,
2013-12-15 07:35:00,19.6,15.8,30.21,West,261,0.0,2.0,85,0.00,,,0.00,VWS V14.01,2013-12-15 13:35:00,
2013-12-15 07:40:00,19.8,16.0,30.22,West,261,1.0,2.0,85,0.00,,,0.00,VWS V14.01,2013-12-15 13:40:00,
2013-12-15 07:45:00,19.9,16.1,30.22,West,261,0.0,2.0,85,0.00,,,0.00,VWS V14.01,2013-12-15 13:45:00,
2013-12-15 07:50:00,20.0,16.2,30.22,West,261,0.0,2.0,85,0.00,,,0.00,VWS V14.01,2013-12-15 13:50:00,
2013-12-15 07:55:00,20.1,16.3,30.21,West,261,0.0,2.0,85,0.00,,,0.00,VWS V14.01,2013-12-15 13:55:00,
2013-12-15 08:00:00,20.3,16.5,30.21,West,261,0.0,2.0,85,0.00,,,0.00,VWS V14.01,2013-12-15 14:00:00,
2013-12-15 08:05:00,20.4,16.6,30.20,West,261,0.0,1.0,85,0.00,,,0.00,VWS V14.01,2013-12-15 14:05:00,
2013-12-15 08:10:00,20.5,16.7,30.20,West,261,2.0,2.0,85,0.00,,,0.00,VWS V14.01,2013-12-15 14:10:00,
2013-12-15 08:15:00,20.5,16.7,30.20,West,261,0.0,2.0,85,0.00,,,0.00,VWS V14.01,2013-12-15 14:15:00,
2013-12-15 08:20:00,20.6,16.8,30.21,West,261,0.0,2.0,85,0.00,,,0.00,VWS V14.01,2013-12-15 14:20:00,
2013-12-15 08:25:00,20.8,17.0,30.20,West,261,0.0,2.0,85,0.00,,,0.00,VWS V14.01,2013-12-15 14:25:00,
2013-12-15 08:30:00,20.9,17.1,30.21,West,261,0.0,2.0,85,0.00,,,0.00,VWS V14.01,2013-12-15 14:30:00,
2013-12-15 08:35:00,21.0,17.2,30.21,West,261,1.0,2.0,85,0.00,,,0.00,VWS V14.01,2013-12-15 14:35:00,
2013-12-15 08:40:00,21.1,17.3,30.21,West,261,0.0,2.0,85,0.00,,,0.00,VWS V14.01,2013-12-15 14:40:00,
2013-12-15 08:45:00,21.1,17.3,30.21,West,261,1.0,2.0,85,0.00,,,0.00,VWS V14.01,2013-12-15 14:45:00,
2013-12-15 08:50:00,21.3,17.2,30.21,West,261,1.0,2.0,84,0.00,,,0.00,VWS V14.01,2013-12-15 14:50:00,
2013-12-15 08:55:00,21.4,17.3,30.21,West,261,1.0,3.0,84,0.00,,,0.00,VWS V14.01,2013-12-15 14:55:00,
2013-12-15 09:00:00,21.6,17.5,30.21,West,261,0.0,3.0,84,0.00,,,0.00,VWS V14.01,2013-12-15 15:00:00,
2013-12-15 09:05:00,21.9,17.8,30.20,West,261,0.0,2.0,84,0.00,,,0.00,VWS V14.01,2013-12-15 15:05:00,
2013-12-15 09:10:00,22.0,17.6,30.20,West,261,1.0,5.0,83,0.00,,,0.00,VWS V14.01,2013-12-15 15:10:00,
2013-12-15 09:15:00,22.1,17.7,30.20,West,261,2.0,5.0,83,0.00,,,0.00,VWS V14.01,2013-12-15 15:15:00,
2013-12-15 09:20:00,22.2,17.8,30.21,West,261,2.0,5.0,83,0.00,,,0.00,VWS V14.01,2013-12-15 15:20:00,
2013-12-15 09:25:00,22.2,17.8,30.20,West,261,2.0,5.0,83,0.00,,,0.00,VWS V14.01,2013-12-15 15:25:00,
2013-12-15 09:30:00,22.2,17.8,30.20,West,261,2.0,5.0,83,0.00,,,0.00,VWS V14.01,2013-12-15 15:30:00,
2013-12-15 09:35:00,22.3,17.9,30.20,West,261,2.0,3.0,83,0.00,,,0.00,VWS V14.01,2013-12-15 15:35:00,
2013-12-15 09:40:00,22.6,18.5,30.21,West,261,0.0,3.0,84,0.00,,,0.00,VWS V14.01,2013-12-15 15:40:00,
2013-12-15 09:45:00,22.9,18.5,30.20,West,261,1.0,3.0,83,0.00,,,0.00,VWS V14.01,2013-12-15 15:45:00,
2013-12-15 09:50:00,23.3,18.9,30.20,West,261,1.0,4.0,83,0.00,,,0.00,VWS V14.01,2013-12-15 15:50:00,
2013-12-15 09:55:00,23.5,18.8,30.21,West,261,3.0,4.0,82,0.00,,,0.00,VWS V14.01,2013-12-15 15:55:00,
2013-12-15 10:00:00,23.5,18.5,30.20,West,261,2.0,5.0,81,0.00,,,0.00,VWS V14.01,2013-12-15 16:00:00,
2013-12-15 10:05:00,23.5,18.8,30.21,West,261,2.0,4.0,82,0.00,,,0.00,VWS V14.01,2013-12-15 16:05:00,
2013-12-15 10:10:00,23.5,18.8,30.21,West,261,3.0,4.0,82,0.00,,,0.00,VWS V14.01,2013-12-15 16:10:00,
2013-12-15 10:15:00,23.6,18.9,30.21,West,261,2.0,4.0,82,0.00,,,0.00,VWS V14.01,2013-12-15 16:15:00,
2013-12-15 10:20:00,23.7,19.0,30.22,West,261,3.0,4.0,82,0.00,,,0.00,VWS V14.01,2013-12-15 16:20:00,
2013-12-15 10:25:00,23.6,18.6,30.22,West,261,0.0,4.0,81,0.00,,,0.00,VWS V14.01,2013-12-15 16:25:00,
2013-12-15 10:30:00,23.8,19.1,30.22,West,261,1.0,1.0,82,0.00,,,0.00,VWS V14.01,2013-12-15 16:30:00,
2013-12-15 10:35:00,24.2,19.8,30.22,West,261,3.0,3.0,83,0.00,,,0.00,VWS V14.01,2013-12-15 16:35:00,
2013-12-15 10:40:00,24.4,19.4,30.22,West,261,2.0,6.0,81,0.00,,,0.00,VWS V14.01,2013-12-15 16:40:00,
2013-12-15 10:45:00,24.5,19.5,30.21,WSW,254,2.0,7.0,81,0.00,,,0.00,VWS V14.01,2013-12-15 16:45:00,
2013-12-15 10:50:00,24.6,19.6,30.21,WSW,254,0.0,7.0,81,0.00,,,0.00,VWS V14.01,2013-12-15 16:50:00,
2013-12-15 10:55:00,24.7,19.7,30.20,WSW,254,0.0,7.0,81,0.00,,,0.00,VWS V14.01,2013-12-15 16:55:00,
2013-12-15 11:00:00,24.9,19.9,30.20,WSW,254,3.0,3.0,81,0.00,,,0.00,VWS V14.01,2013-12-15 17:00:00,
2013-12-15 11:05:00,25.0,19.7,30.20,WSW,254,1.0,5.0,80,0.00,,,0.00,VWS V14.01,2013-12-15 17:05:00,
2013-12-15 11:10:00,25.1,20.1,30.19,WSW,254,0.0,5.0,81,0.00,,,0.00,VWS V14.01,2013-12-15 17:10:00,
2013-12-15 11:15:00,25.3,20.3,30.20,WSW,254,0.0,5.0,81,0.00,,,0.00,VWS V14.01,2013-12-15 17:15:00,
2013-12-15 11:20:00,25.6,20.6,30.19,WSW,254,4.0,5.0,81,0.00,,,0.00,VWS V14.01,2013-12-15 17:20:00,
2013-12-15 11:25:00,25.7,20.4,30.19,WSW,254,4.0,5.0,80,0.00,,,0.00,VWS V14.01,2013-12-15 17:25:00,
2013-12-15 11:30:00,25.8,20.5,30.19,WSW,254,3.0,3.0,80,0.00,,,0.00,VWS V14.01,2013-12-15 17:30:00,
2013-12-15 11:35:00,26.0,20.7,30.19,WSW,254,0.0,4.0,80,0.00,,,0.00,VWS V14.01,2013-12-15 17:35:00,
2013-12-15 11:40:00,26.4,21.1,30.19,WSW,254,0.0,4.0,80,0.00,,,0.00,VWS V14.01,2013-12-15 17:40:00,
2013-12-15 11:45:00,26.8,21.5,30.19,WSW,254,2.0,5.0,80,0.00,,,0.00,VWS V14.01,2013-12-15 17:45:00,
2013-12-15 11:50:00,27.2,22.1,30.17,WSW,254,0.0,5.0,81,0.00,,,0.00,VWS V14.01,2013-12-15 17:50:00,
2013-12-15 11:55:00,27.8,21.9,30.17,WSW,254,0.0,5.0,78,0.00,,,0.00,VWS V14.01,2013-12-15 17:55:00,
2013-12-15 12:00:00,27.9,21.9,30.16,WSW,254,0.0,0.0,78,0.00,,,0.00,VWS V14.01,2013-12-15 18:00:00,
2013-12-15 12:05:00,28.3,22.6,30.16,WSW,254,0.0,2.0,79,0.00,,,0.00,VWS V14.01,2013-12-15 18:05:00,
2013-12-15 12:10:00,28.5,21.9,30.16,WSW,254,0.0,3.0,76,0.00,,,0.00,VWS V14.01,2013-12-15 18:10:00,
2013-12-15 12:15:00,28.5,22.2,30.15,WSW,254,1.0,3.0,77,0.00,,,0.00,VWS V14.01,2013-12-15 18:15:00,
2013-12-15 12:20:00,28.8,22.5,30.15,WSW,254,0.0,3.0,77,0.00,,,0.00,VWS V14.01,2013-12-15 18:20:00,
2013-12-15 12:25:00,29.4,22.8,30.14,WSW,254,4.0,4.0,76,0.00,,,0.00,VWS V14.01,2013-12-15 18:25:00,
2013-12-15 12:30:00,29.1,22.2,30.14,WSW,254,0.0,0.0,75,0.00,,,0.00,VWS V14.01,2013-12-15 18:30:00,
2013-12-15 12:35:00,29.3,22.4,30.13,WSW,254,0.0,3.0,75,0.00,,,0.00,VWS V14.01,2013-12-15 18:35:00,
2013-12-15 12:40:00,29.7,23.4,30.12,WSW,254,0.0,3.0,77,0.01,,,0.01,VWS V14.01,2013-12-15 18:40:00,
2013-12-15 12:45:00,30.3,23.7,30.12,WSW,247,0.0,4.0,76,0.01,,,0.01,VWS V14.01,2013-12-15 18:45:00,
2013-12-15 12:50:00,30.8,23.5,30.11,WSW,247,3.0,4.0,74,0.01,,,0.01,VWS V14.01,2013-12-15 18:50:00,
2013-12-15 12:55:00,30.7,23.1,30.11,WSW,244,0.0,5.0,73,0.01,,,0.01,VWS V14.01,2013-12-15 18:55:00,
2013-12-15 13:00:00,30.7,23.1,30.12,WSW,244,2.0,3.0,73,0.02,,,0.02,VWS V14.01,2013-12-15 19:00:00,
2013-12-15 13:05:00,30.7,23.7,30.12,WSW,244,0.0,3.0,75,0.05,,,0.05,VWS V14.01,2013-12-15 19:05:00,
2013-12-15 13:10:00,31.3,24.3,30.12,WSW,244,0.0,3.0,75,0.08,,,0.08,VWS V14.01,2013-12-15 19:10:00,
2013-12-15 13:15:00,31.7,24.4,30.11,WSW,244,0.0,3.0,74,0.09,,,0.09,VWS V14.01,2013-12-15 19:15:00,
2013-12-15 13:20:00,32.0,24.3,30.12,West,259,3.0,5.0,73,0.09,,,0.09,VWS V14.01,2013-12-15 19:20:00,
2013-12-15 13:25:00,31.6,23.6,30.12,West,277,0.0,6.0,72,0.10,,,0.10,VWS V14.01,2013-12-15 19:25:00,
2013-12-15 13:30:00,30.9,23.3,30.12,West,264,4.0,4.0,73,0.11,,,0.11,VWS V14.01,2013-12-15 19:30:00,
2013-12-15 13:36:00,30.3,23.3,30.11,West,264,0.0,4.0,75,0.11,,,0.11,VWS V14.01,2013-12-15 19:36:00,
2013-12-15 13:41:00,30.3,23.3,30.12,West,264,1.0,4.0,75,0.11,,,0.11,VWS V14.01,2013-12-15 19:41:00,
2013-12-15 13:46:00,30.3,23.0,30.13,West,264,0.0,4.0,74,0.12,,,0.12,VWS V14.01,2013-12-15 19:46:00,
2013-12-15 13:51:00,30.4,23.4,30.13,West,264,0.0,4.0,75,0.13,,,0.13,VWS V14.01,2013-12-15 19:51:00,
2013-12-15 13:56:00,30.5,23.5,30.11,West,264,0.0,4.0,75,0.13,,,0.13,VWS V14.01,2013-12-15 19:56:00,
2013-12-15 14:00:00,30.9,24.2,30.11,West,264,0.0,4.0,76,0.13,,,0.13,VWS V14.01,2013-12-15 20:00:00,
2013-12-15 14:01:00,31.0,24.3,30.11,West,264,0.0,0.0,76,0.11,,,0.13,VWS V14.01,2013-12-15 20:01:00,
2013-12-15 14:06:00,31.4,24.4,30.11,West,264,1.0,1.0,75,0.11,,,0.13,VWS V14.01,2013-12-15 20:06:00,
2013-12-15 14:11:00,31.2,24.2,30.12,NW,304,0.0,5.0,75,0.12,,,0.14,VWS V14.01,2013-12-15 20:11:00,
2013-12-15 14:16:00,31.1,24.4,30.12,NW,304,0.0,5.0,76,0.12,,,0.14,VWS V14.01,2013-12-15 20:16:00,
2013-12-15 14:21:00,31.3,24.6,30.13,NW,304,0.0,5.0,76,0.13,,,0.15,VWS V14.01,2013-12-15 20:21:00,
2013-12-15 14:26:00,31.0,23.7,30.12,NW,304,0.0,5.0,74,0.13,,,0.15,VWS V14.01,2013-12-15 20:26:00,
2013-12-15 14:30:00,30.4,23.4,30.11,East,84,2.0,5.0,75,0.13,,,0.15,VWS V14.01,2013-12-15 20:30:00,
2013-12-15 14:31:00,30.3,23.0,30.11,East,83,2.0,3.0,74,0.04,,,0.15,VWS V14.01,2013-12-15 20:31:00,
2013-12-15 14:36:00,29.6,23.0,30.12,East,83,0.0,3.0,76,0.04,,,0.15,VWS V14.01,2013-12-15 20:36:00,
2013-12-15 14:41:00,29.2,22.9,30.13,East,82,0.0,3.0,77,0.05,,,0.16,VWS V14.01,2013-12-15 20:41:00,
2013-12-15 14:46:00,29.1,23.4,30.13,East,82,0.0,3.0,79,0.05,,,0.16,VWS V14.01,2013-12-15 20:46:00,
2013-12-15 14:51:00,29.1,23.4,30.13,East,79,0.0,3.0,79,0.05,,,0.16,VWS V14.01,2013-12-15 20:51:00,
2013-12-15 14:56:00,29.2,23.5,30.13,East,79,2.0,3.0,79,0.06,,,0.17,VWS V14.01,2013-12-15 20:56:00,
2013-12-15 15:00:00,29.3,23.6,30.13,East,79,0.0,3.0,79,0.06,,,0.17,VWS V14.01,2013-12-15 21:00:00,
2013-12-15 15:01:00,29.3,23.6,30.13,East,79,0.0,0.0,79,0.04,,,0.17,VWS V14.01,2013-12-15 21:01:00,
2013-12-15 15:06:00,29.2,23.5,30.13,East,79,1.0,3.0,79,0.04,,,0.17,VWS V14.01,2013-12-15 21:06:00,
2013-12-15 15:11:00,29.0,23.0,30.12,East,79,0.0,3.0,78,0.04,,,0.17,VWS V14.01,2013-12-15 21:11:00,
2013-12-15 15:16:00,28.7,23.0,30.12,East,79,0.0,3.0,79,0.04,,,0.17,VWS V14.01,2013-12-15 21:16:00,
2013-12-15 15:21:00,28.5,22.8,30.12,East,79,1.0,3.0,79,0.04,,,0.17,VWS V14.01,2013-12-15 21:21:00,
2013-12-15 15:26:00,28.5,23.1,30.12,East,79,0.0,3.0,80,0.04,,,0.17,VWS V14.01,2013-12-15 21:26:00,
2013-12-15 15:30:00,28.7,23.6,30.13,East,79,0.0,3.0,81,0.04,,,0.17,VWS V14.01,2013-12-15 21:30:00,
2013-12-15 15:31:00,28.7,23.6,30.13,East,79,0.0,0.0,81,0.02,,,0.17,VWS V14.01,2013-12-15 21:31:00,
2013-12-15 15:36:00,28.8,23.4,30.14,ENE,78,0.0,3.0,80,0.02,,,0.17,VWS V14.01,2013-12-15 21:36:00,
2013-12-15 15:41:00,28.8,23.1,30.14,ENE,78,0.0,3.0,79,0.02,,,0.17,VWS V14.01,2013-12-15 21:41:00,
2013-12-15 15:46:00,28.7,23.3,30.13,ENE,78,0.0,3.0,80,0.02,,,0.17,VWS V14.01,2013-12-15 21:46:00,
2013-12-15 15:51:00,28.7,23.3,30.13,ENE,78,0.0,3.0,80,0.02,,,0.17,VWS V14.01,2013-12-15 21:51:00,
2013-12-15 15:56:00,28.5,23.1,30.13,ENE,78,0.0,3.0,80,0.02,,,0.17,VWS V14.01,2013-12-15 21:56:00,
2013-12-15 16:00:00,28.4,23.0,30.14,ENE,78,0.0,3.0,80,0.02,,,0.17,VWS V14.01,2013-12-15 22:00:00,
2013-12-15 16:01:00,28.4,23.0,30.14,ENE,78,0.0,0.0,80,0.00,,,0.17,VWS V14.01,2013-12-15 22:01:00,
2013-12-15 16:06:00,28.4,23.0,30.14,ENE,78,0.0,0.0,80,0.00,,,0.17,VWS V14.01,2013-12-15 22:06:00,
2013-12-15 16:11:00,28.3,22.9,30.14,ENE,78,0.0,0.0,80,0.00,,,0.17,VWS V14.01,2013-12-15 22:11:00,
2013-12-15 16:16:00,28.3,22.9,30.14,ENE,78,0.0,0.0,80,0.00,,,0.17,VWS V14.01,2013-12-15 22:16:00,
2013-12-15 16:21:00,28.1,22.7,30.13,ENE,78,0.0,0.0,80,0.00,,,0.17,VWS V14.01,2013-12-15 22:21:00,
2013-12-15 16:26:00,27.8,22.4,30.13,ENE,78,0.0,1.0,80,0.01,,,0.18,VWS V14.01,2013-12-15 22:26:00,
2013-12-15 16:30:00,27.6,22.2,30.13,ENE,78,0.0,1.0,80,0.01,,,0.18,VWS V14.01,2013-12-15 22:30:00,
2013-12-15 16:31:00,27.6,22.2,30.13,ENE,78,0.0,0.0,80,0.01,,,0.18,VWS V14.01,2013-12-15 22:31:00,
2013-12-15 16:36:00,27.4,22.4,30.12,ENE,78,0.0,0.0,81,0.01,,,0.18,VWS V14.01,2013-12-15 22:36:00,
2013-12-15 16:41:00,27.1,22.1,30.13,ENE,78,0.0,0.0,81,0.01,,,0.18,VWS V14.01,2013-12-15 22:41:00,
2013-12-15 16:46:00,26.9,21.9,30.13,ENE,78,0.0,0.0,81,0.01,,,0.18,VWS V14.01,2013-12-15 22:46:00,
2013-12-15 16:51:00,26.7,22.2,30.13,ENE,78,0.0,0.0,83,0.01,,,0.18,VWS V14.01,2013-12-15 22:51:00,
2013-12-15 16:56:00,26.6,22.4,30.13,ENE,78,0.0,0.0,84,0.01,,,0.18,VWS V14.01,2013-12-15 22:56:00,
2013-12-15 17:00:00,26.4,22.2,30.13,ENE,78,0.0,0.0,84,0.01,,,0.18,VWS V14.01,2013-12-15 23:00:00,
2013-12-15 17:01:00,26.3,22.1,30.13,ENE,78,0.0,0.0,84,0.01,,,0.18,VWS V14.01,2013-12-15 23:01:00,
2013-12-15 17:06:00,26.1,21.9,30.13,ENE,78,0.0,0.0,84,0.01,,,0.18,VWS V14.01,2013-12-15 23:06:00,
2013-12-15 17:11:00,26.0,22.1,30.13,ENE,78,0.0,0.0,85,0.01,,,0.18,VWS V14.01,2013-12-15 23:11:00,
2013-12-15 17:16:00,25.7,21.8,30.12,ENE,78,0.0,0.0,85,0.01,,,0.18,VWS V14.01,2013-12-15 23:16:00,
2013-12-15 17:21:00,25.6,21.7,30.12,ENE,78,0.0,0.0,85,0.01,,,0.18,VWS V14.01,2013-12-15 23:21:00,
2013-12-15 17:26:00,25.4,21.5,30.12,ENE,78,0.0,0.0,85,0.01,,,0.18,VWS V14.01,2013-12-15 23:26:00,
2013-12-15 17:30:00,25.3,21.7,30.12,ENE,78,0.0,0.0,86,0.01,,,0.18,VWS V14.01,2013-12-15 23:30:00,
2013-12-15 17:31:00,25.2,21.6,30.12,ENE,78,0.0,0.0,86,0.00,,,0.18,VWS V14.01,2013-12-15 23:31:00,
2013-12-15 17:36:00,25.2,21.6,30.12,ENE,78,0.0,0.0,86,0.00,,,0.18,VWS V14.01,2013-12-15 23:36:00,
2013-12-15 17:41:00,25.1,21.5,30.12,ENE,78,0.0,0.0,86,0.00,,,0.18,VWS V14.01,2013-12-15 23:41:00,
2013-12-15 17:46:00,25.1,21.5,30.12,ENE,78,0.0,0.0,86,0.00,,,0.18,VWS V14.01,2013-12-15 23:46:00,
2013-12-15 17:51:00,25.0,21.4,30.12,ENE,78,0.0,0.0,86,0.00,,,0.18,VWS V14.01,2013-12-15 23:51:00,
2013-12-15 17:56:00,25.0,21.7,30.12,ENE,78,0.0,0.0,87,0.00,,,0.18,VWS V14.01,2013-12-15 23:56:00,
2013-12-15 18:00:00,24.9,21.6,30.12,ENE,78,0.0,0.0,87,0.00,,,0.18,VWS V14.01,2013-12-16 00:00:00,
2013-12-15 18:01:00,24.9,21.6,30.12,ENE,78,0.0,0.0,87,0.00,,,0.18,VWS V14.01,2013-12-16 00:01:00,
2013-12-15 18:06:00,24.8,21.5,30.13,ENE,78,0.0,0.0,87,0.00,,,0.18,VWS V14.01,2013-12-16 00:06:00,
2013-12-15 18:11:00,24.8,21.5,30.12,ENE,78,0.0,0.0,87,0.00,,,0.18,VWS V14.01,2013-12-16 00:11:00,
2013-12-15 18:16:00,24.7,21.4,30.12,ENE,78,0.0,0.0,87,0.00,,,0.18,VWS V14.01,2013-12-16 00:16:00,
2013-12-15 18:21:00,24.7,21.4,30.13,ENE,78,0.0,0.0,87,0.00,,,0.18,VWS V14.01,2013-12-16 00:21:00,
2013-12-15 18:26:00,24.6,21.3,30.12,ENE,78,0.0,0.0,87,0.00,,,0.18,VWS V14.01,2013-12-16 00:26:00,
2013-12-15 18:30:00,24.7,21.4,30.12,ENE,78,0.0,0.0,87,0.00,,,0.18,VWS V14.01,2013-12-16 00:30:00,
2013-12-15 18:31:00,24.7,21.4,30.12,ENE,78,0.0,0.0,87,0.00,,,0.18,VWS V14.01,2013-12-16 00:31:00,
2013-12-15 18:36:00,24.7,21.7,30.12,ENE,78,0.0,0.0,88,0.00,,,0.18,VWS V14.01,2013-12-16 00:36:00,
2013-12-15 18:41:00,24.8,21.8,30.11,ENE,78,0.0,0.0,88,0.00,,,0.18,VWS V14.01,2013-12-16 00:41:00,
2013-12-15 18:46:00,24.8,21.8,30.11,ENE,78,0.0,0.0,88,0.00,,,0.18,VWS V14.01,2013-12-16 00:46:00,
2013-12-15 18:51:00,24.9,21.9,30.11,ENE,78,0.0,0.0,88,0.00,,,0.18,VWS V14.01,2013-12-16 00:51:00,
2013-12-15 18:56:00,24.9,21.9,30.11,ENE,78,0.0,0.0,88,0.00,,,0.18,VWS V14.01,2013-12-16 00:56:00,
2013-12-15 19:00:00,25.0,22.0,30.11,ENE,78,0.0,0.0,88,0.00,,,0.18,VWS V14.01,2013-12-16 01:00:00,
2013-12-15 19:06:00,25.1,22.0,30.11,ENE,78,0.0,0.0,88,0.00,,,0.18,VWS V14.01,2013-12-16 01:06:00,
2013-12-15 19:11:00,25.3,22.5,30.11,ENE,78,0.0,0.0,89,0.00,,,0.18,VWS V14.01,2013-12-16 01:11:00,
2013-12-15 19:16:00,25.6,22.8,30.11,ENE,78,0.0,1.0,89,0.00,,,0.18,VWS V14.01,2013-12-16 01:16:00,
2013-12-15 19:21:00,25.8,23.0,30.12,ENE,78,0.0,1.0,89,0.00,,,0.18,VWS V14.01,2013-12-16 01:21:00,
2013-12-15 19:26:00,26.0,22.9,30.12,ENE,78,0.0,1.0,88,0.00,,,0.18,VWS V14.01,2013-12-16 01:26:00,
2013-12-15 19:30:00,26.0,22.9,30.12,ENE,78,0.0,1.0,88,0.00,,,0.18,VWS V14.01,2013-12-16 01:30:00,
2013-12-15 19:31:00,26.1,23.0,30.12,ENE,78,0.0,0.0,88,0.00,,,0.18,VWS V14.01,2013-12-16 01:31:00,
2013-12-15 19:36:00,26.2,23.1,30.12,ENE,78,0.0,0.0,88,0.00,,,0.18,VWS V14.01,2013-12-16 01:36:00,
2013-12-15 19:41:00,26.3,23.2,30.12,ENE,78,0.0,0.0,88,0.00,,,0.18,VWS V14.01,2013-12-16 01:41:00,
2013-12-15 19:46:00,26.5,23.4,30.13,ENE,78,0.0,0.0,88,0.00,,,0.18,VWS V14.01,2013-12-16 01:46:00,
2013-12-15 19:52:00,26.6,23.3,30.12,ENE,78,1.0,1.0,87,0.00,,,0.18,VWS V14.01,2013-12-16 01:52:00,
2013-12-15 19:57:00,26.7,23.4,30.12,ENE,78,0.0,1.0,87,0.00,,,0.18,VWS V14.01,2013-12-16 01:57:00,
2013-12-15 20:00:00,26.7,23.4,30.12,ENE,78,0.0,1.0,87,0.00,,,0.18,VWS V14.01,2013-12-16 02:00:00,
2013-12-15 20:02:00,26.8,23.5,30.12,ENE,78,0.0,0.0,87,0.00,,,0.18,VWS V14.01,2013-12-16 02:02:00,
2013-12-15 20:07:00,26.8,23.2,30.12,ENE,78,0.0,1.0,86,0.00,,,0.18,VWS V14.01,2013-12-16 02:07:00,
2013-12-15 20:12:00,26.9,23.3,30.12,ENE,78,0.0,1.0,86,0.00,,,0.18,VWS V14.01,2013-12-16 02:12:00,
2013-12-15 20:17:00,26.9,23.3,30.12,ENE,78,0.0,2.0,86,0.00,,,0.18,VWS V14.01,2013-12-16 02:17:00,
2013-12-15 20:22:00,26.9,23.3,30.11,ENE,78,0.0,2.0,86,0.00,,,0.18,VWS V14.01,2013-12-16 02:22:00,
2013-12-15 20:27:00,26.9,23.3,30.12,ENE,78,0.0,2.0,86,0.00,,,0.18,VWS V14.01,2013-12-16 02:27:00,
2013-12-15 20:30:00,26.9,23.3,30.12,ENE,78,0.0,2.0,86,0.00,,,0.18,VWS V14.01,2013-12-16 02:30:00,
2013-12-15 20:32:00,26.9,23.3,30.12,ENE,78,2.0,2.0,86,0.00,,,0.18,VWS V14.01,2013-12-16 02:32:00,
2013-12-15 20:37:00,26.9,23.3,30.11,ENE,78,0.0,2.0,86,0.00,,,0.18,VWS V14.01,2013-12-16 02:37:00,
2013-12-15 20:42:00,26.9,23.0,30.11,ENE,78,0.0,2.0,85,0.00,,,0.18,VWS V14.01,2013-12-16 02:42:00,
2013-12-15 20:47:00,26.9,23.0,30.12,ENE,78,0.0,2.0,85,0.00,,,0.18,VWS V14.01,2013-12-16 02:47:00,
2013-12-15 20:52:00,26.9,23.0,30.11,ENE,78,0.0,2.0,85,0.00,,,0.18,VWS V14.01,2013-12-16 02:52:00,
2013-12-15 20:57:00,26.9,23.0,30.12,ENE,78,0.0,2.0,85,0.00,,,0.18,VWS V14.01,2013-12-16 02:57:00,
2013-12-15 21:00:00,26.9,23.0,30.11,ENE,78,0.0,2.0,85,0.00,,,0.18,VWS V14.01,2013-12-16 03:00:00,
2013-12-15 21:02:00,26.9,23.0,30.11,ENE,78,0.0,0.0,85,0.00,,,0.18,VWS V14.01,2013-12-16 03:02:00,
2013-12-15 21:07:00,26.9,23.3,30.11,ENE,78,0.0,0.0,86,0.00,,,0.18,VWS V14.01,2013-12-16 03:07:00,
2013-12-15 21:12:00,26.9,23.3,30.11,ENE,78,1.0,1.0,86,0.00,,,0.18,VWS V14.01,2013-12-16 03:12:00,
2013-12-15 21:17:00,27.0,23.4,30.11,ENE,78,1.0,2.0,86,0.00,,,0.18,VWS V14.01,2013-12-16 03:17:00,
2013-12-15 21:22:00,27.0,23.4,30.11,ENE,78,0.0,2.0,86,0.00,,,0.18,VWS V14.01,2013-12-16 03:22:00,
2013-12-15 21:27:00,27.0,23.4,30.11,ENE,78,0.0,2.0,86,0.00,,,0.18,VWS V14.01,2013-12-16 03:27:00,
2013-12-15 21:30:00,27.0,23.1,30.11,ENE,78,0.0,2.0,85,0.00,,,0.18,VWS V14.01,2013-12-16 03:30:00,
2013-12-15 21:32:00,27.0,23.1,30.11,ENE,78,0.0,0.0,85,0.00,,,0.18,VWS V14.01,2013-12-16 03:32:00,
2013-12-15 21:37:00,27.0,23.1,30.10,ENE,78,0.0,2.0,85,0.00,,,0.18,VWS V14.01,2013-12-16 03:37:00,
2013-12-15 21:42:00,27.0,23.4,30.10,ENE,78,0.0,2.0,86,0.00,,,0.18,VWS V14.01,2013-12-16 03:42:00,
2013-12-15 21:47:00,27.0,23.1,30.10,ENE,78,0.0,2.0,85,0.00,,,0.18,VWS V14.01,2013-12-16 03:47:00,
2013-12-15 21:52:00,27.0,23.4,30.10,ENE,78,0.0,2.0,86,0.00,,,0.18,VWS V14.01,2013-12-16 03:52:00,
2013-12-15 21:57:00,27.0,23.4,30.11,ENE,78,0.0,2.0,86,0.00,,,0.18,VWS V14.01,2013-12-16 03:57:00,
2013-12-15 22:00:00,27.0,23.4,30.10,ENE,78,0.0,2.0,86,0.00,,,0.18,VWS V14.01,2013-12-16 04:00:00,
2013-12-15 22:02:00,27.0,23.4,30.10,ENE,78,0.0,1.0,86,0.00,,,0.18,VWS V14.01,2013-12-16 04:02:00,
2013-12-15 22:07:00,27.0,23.4,30.10,ENE,78,0.0,2.0,86,0.00,,,0.18,VWS V14.01,2013-12-16 04:07:00,
2013-12-15 22:12:00,27.0,23.1,30.10,ENE,78,0.0,2.0,85,0.00,,,0.18,VWS V14.01,2013-12-16 04:12:00,
2013-12-15 22:17:00,27.0,23.1,30.10,ENE,78,0.0,2.0,85,0.00,,,0.18,VWS V14.01,2013-12-16 04:17:00,
2013-12-15 22:22:00,27.1,23.2,30.10,ENE,78,0.0,2.0,85,0.00,,,0.18,VWS V14.01,2013-12-16 04:22:00,
2013-12-15 22:27:00,27.0,23.4,30.10,ENE,78,0.0,2.0,86,0.00,,,0.18,VWS V14.01,2013-12-16 04:27:00,
2013-12-15 22:30:00,27.1,23.5,30.10,ENE,78,0.0,2.0,86,0.00,,,0.18,VWS V14.01,2013-12-16 04:30:00,
2013-12-15 22:32:00,27.0,23.4,30.10,ENE,78,0.0,0.0,86,0.00,,,0.18,VWS V14.01,2013-12-16 04:32:00,
2013-12-15 22:37:00,27.1,23.5,30.10,ENE,78,0.0,2.0,86,0.00,,,0.18,VWS V14.01,2013-12-16 04:37:00,
2013-12-15 22:42:00,27.1,23.5,30.10,ENE,78,2.0,2.0,86,0.00,,,0.18,VWS V14.01,2013-12-16 04:42:00,
2013-12-15 22:47:00,27.1,23.5,30.10,ENE,78,2.0,3.0,86,0.00,,,0.18,VWS V14.01,2013-12-16 04:47:00,
2013-12-15 22:52:00,27.1,23.5,30.10,ENE,78,2.0,3.0,86,0.00,,,0.18,VWS V14.01,2013-12-16 04:52:00,
2013-12-15 22:57:00,27.0,23.4,30.10,ENE,78,0.0,3.0,86,0.00,,,0.18,VWS V14.01,2013-12-16 04:57:00,
2013-12-15 23:00:00,27.1,23.5,30.10,ENE,78,1.0,3.0,86,0.00,,,0.18,VWS V14.01,2013-12-16 05:00:00,
2013-12-15 23:02:00,27.1,23.5,30.10,ENE,78,0.0,2.0,86,0.00,,,0.18,VWS V14.01,2013-12-16 05:02:00,
2013-12-15 23:07:00,27.0,23.4,30.10,ENE,78,0.0,2.0,86,0.00,,,0.18,VWS V14.01,2013-12-16 05:07:00,
2013-12-15 23:12:00,27.0,23.4,30.09,ENE,78,0.0,2.0,86,0.00,,,0.18,VWS V14.01,2013-12-16 05:12:00,
2013-12-15 23:17:00,27.0,23.4,30.09,ENE,78,1.0,2.0,86,0.00,,,0.18,VWS V14.01,2013-12-16 05:17:00,
2013-12-15 23:22:00,27.0,23.4,30.10,ENE,78,0.0,2.0,86,0.00,,,0.18,VWS V14.01,2013-12-16 05:22:00,
2013-12-15 23:27:00,27.0,23.4,30.09,ENE,78,1.0,3.0,86,0.00,,,0.18,VWS V14.01,2013-12-16 05:27:00,
2013-12-15 23:30:00,27.0,23.4,30.09,ENE,78,0.0,3.0,86,0.00,,,0.18,VWS V14.01,2013-12-16 05:30:00,
2013-12-15 23:32:00,27.1,23.5,30.09,ENE,78,0.0,1.0,86,0.00,,,0.18,VWS V14.01,2013-12-16 05:32:00,
2013-12-15 23:37:00,27.0,23.4,30.10,ENE,78,0.0,2.0,86,0.00,,,0.18,VWS V14.01,2013-12-16 05:37:00,
2013-12-15 23:42:00,27.0,23.4,30.09,ENE,78,1.0,2.0,86,0.00,,,0.18,VWS V14.01,2013-12-16 05:42:00,
2013-12-15 23:47:00,27.0,23.4,30.08,ENE,78,0.0,2.0,86,0.00,,,0.18,VWS V14.01,2013-12-16 05:47:00,
2013-12-15 23:52:00,26.9,23.3,30.08,ENE,78,0.0,2.0,86,0.00,,,0.18,VWS V14.01,2013-12-16 05:52:00,
2013-12-15 23:57:00,27.0,23.4,30.08,ENE,78,0.0,2.0,86,0.00,,,0.18,VWS V14.01,2013-12-16 05:57:00,